createdAt,value
2018-06-03T00:00:29.499Z,8.87
2018-06-03T00:02:58.219Z,7.80
2018-06-03T00:05:27.053Z,8.47
2018-06-03T00:07:55.771Z,8.37
2018-06-03T00:10:24.511Z,9.00
2018-06-03T00:12:53.297Z,8.80
2018-06-03T00:15:22.083Z,9.73
2018-06-03T00:17:50.922Z,9.13
2018-06-03T00:20:35.498Z,9.07
2018-06-03T00:23:04.371Z,9.17
2018-06-03T00:25:33.059Z,9.53
2018-06-03T00:28:01.741Z,8.90
2018-06-03T00:30:30.518Z,8.80
2018-06-03T00:32:59.206Z,9.23
2018-06-03T00:35:27.911Z,9.13
2018-06-03T00:37:56.646Z,9.80
2018-06-03T00:40:25.665Z,9.50
2018-06-03T00:42:54.317Z,9.10
2018-06-03T00:45:23.006Z,9.63
2018-06-03T00:47:51.693Z,8.90
2018-06-03T00:50:20.378Z,9.03
2018-06-03T00:52:49.150Z,8.53
2018-06-03T00:55:17.844Z,9.43
2018-06-03T00:57:46.559Z,9.40
2018-06-03T01:00:15.234Z,10.37
2018-06-03T01:02:43.926Z,10.13
2018-06-03T01:05:12.883Z,10.17
2018-06-03T01:07:41.558Z,10.27
2018-06-03T01:10:10.240Z,10.47
2018-06-03T01:12:38.971Z,9.40
2018-06-03T01:15:07.811Z,10.50
2018-06-03T01:17:36.305Z,10.47
2018-06-03T01:20:05.006Z,11.03
2018-06-03T01:22:33.681Z,10.20
2018-06-03T01:25:02.392Z,11.63
2018-06-03T01:27:31.084Z,10.63
2018-06-03T01:29:59.771Z,11.77
2018-06-03T01:32:28.554Z,10.60
2018-06-03T01:34:57.211Z,10.87
2018-06-03T01:37:25.901Z,11.07
2018-06-03T01:39:54.587Z,10.53
2018-06-03T01:42:23.275Z,10.23
2018-06-03T01:44:51.966Z,9.80
2018-06-03T01:47:20.638Z,11.37
2018-06-03T01:49:49.311Z,10.27
2018-06-03T01:52:18.019Z,10.37
2018-06-03T01:54:46.701Z,11.50
2018-06-03T01:57:15.368Z,10.60
2018-06-03T01:59:44.058Z,10.90
2018-06-03T02:02:12.799Z,10.13
2018-06-03T02:04:41.546Z,10.47
2018-06-03T02:07:10.236Z,9.60
2018-06-03T02:09:38.933Z,10.40
2018-06-03T02:12:07.653Z,11.07
2018-06-03T02:14:36.138Z,11.67
2018-06-03T02:17:05.231Z,11.97
2018-06-03T02:19:33.901Z,11.57
2018-06-03T02:22:02.581Z,11.40
2018-06-03T02:24:31.259Z,10.80
2018-06-03T02:26:59.953Z,10.20
2018-06-03T02:29:28.639Z,11.20
2018-06-03T02:31:57.307Z,10.27
2018-06-03T02:34:26.040Z,11.03
2018-06-03T02:36:54.734Z,10.77
2018-06-03T02:39:23.407Z,11.50
2018-06-03T02:41:52.081Z,11.37
2018-06-03T02:44:20.766Z,12.20
2018-06-03T02:46:49.508Z,10.80
2018-06-03T02:49:18.199Z,9.73
2018-06-03T02:51:46.890Z,10.63
2018-06-03T02:54:15.551Z,10.43
2018-06-03T02:56:44.231Z,10.33
2018-06-03T02:59:12.903Z,10.77
2018-06-03T03:01:41.592Z,10.83
2018-06-03T03:04:10.258Z,11.10
2018-06-03T03:06:38.937Z,10.10
2018-06-03T03:09:07.638Z,10.30
2018-06-03T03:11:36.307Z,9.80
2018-06-03T03:14:04.953Z,9.63
2018-06-03T03:16:33.633Z,9.80
2018-06-03T03:19:02.327Z,9.33
2018-06-03T03:21:31.006Z,9.17
2018-06-03T03:23:59.698Z,9.27
2018-06-03T03:26:28.373Z,9.83
2018-06-03T03:28:57.054Z,10.27
2018-06-03T03:31:26.634Z,10.20
2018-06-03T03:33:55.299Z,9.90
2018-06-03T03:36:23.973Z,8.77
2018-06-03T03:38:52.631Z,8.73
2018-06-03T03:41:21.313Z,8.83
2018-06-03T03:43:49.998Z,8.43
2018-06-03T03:46:18.679Z,8.60
2018-06-03T03:48:47.361Z,8.60
2018-06-03T03:51:16.051Z,8.60
2018-06-03T03:53:44.731Z,8.63
2018-06-03T03:56:13.448Z,8.80
2018-06-03T03:58:42.139Z,8.13
2018-06-03T04:01:10.846Z,8.73
2018-06-03T04:03:39.523Z,8.23
2018-06-03T04:06:08.240Z,7.97
2018-06-03T04:08:36.908Z,8.20
2018-06-03T04:11:05.746Z,8.23
2018-06-03T04:13:34.438Z,7.70
2018-06-03T04:16:03.105Z,7.63
2018-06-03T04:18:31.788Z,7.13
2018-06-03T04:21:00.478Z,7.63
2018-06-03T04:23:29.171Z,6.73
2018-06-03T04:25:57.890Z,7.57
2018-06-03T04:28:26.383Z,8.47
2018-06-03T04:30:55.101Z,8.20
2018-06-03T04:33:23.801Z,8.73
2018-06-03T04:35:52.490Z,8.30
2018-06-03T04:38:21.228Z,7.33
2018-06-03T04:40:49.931Z,7.37
2018-06-03T04:43:18.618Z,7.60
2018-06-03T04:45:47.303Z,7.73
2018-06-03T04:48:15.979Z,7.43
2018-06-03T04:50:44.670Z,7.07
2018-06-03T04:53:13.371Z,7.23
2018-06-03T04:55:42.045Z,6.70
2018-06-03T04:58:10.709Z,7.30
2018-06-03T05:00:39.394Z,6.63
2018-06-03T05:03:08.083Z,6.40
2018-06-03T05:05:36.772Z,6.53
2018-06-03T05:08:05.562Z,6.30
2018-06-03T05:10:34.264Z,6.10
2018-06-03T05:13:02.950Z,6.20
2018-06-03T05:15:31.648Z,6.97
2018-06-03T05:18:00.340Z,7.07
2018-06-03T05:20:29.026Z,6.10
2018-06-03T05:22:57.689Z,5.40
2018-06-03T05:25:26.381Z,5.53
2018-06-03T05:27:55.078Z,5.33
2018-06-03T05:30:23.778Z,5.40
2018-06-03T05:32:52.458Z,5.70
2018-06-03T05:35:21.151Z,5.70
2018-06-03T05:37:49.926Z,5.90
2018-06-03T05:40:18.606Z,5.90
2018-06-03T05:42:47.606Z,6.17
2018-06-03T05:45:16.286Z,5.67
2018-06-03T05:47:44.966Z,5.60
2018-06-03T05:50:13.655Z,5.67
2018-06-03T05:52:42.349Z,5.20
2018-06-03T05:55:11.061Z,5.77
2018-06-03T05:57:39.748Z,5.63
2018-06-03T06:00:08.231Z,5.20
2018-06-03T06:02:36.746Z,6.07
2018-06-03T06:05:05.440Z,5.63
2018-06-03T06:07:34.136Z,5.60
2018-06-03T06:10:02.939Z,6.53
2018-06-03T06:12:31.733Z,6.23
2018-06-03T06:15:00.594Z,5.87
2018-06-03T06:17:29.290Z,6.47
2018-06-03T06:19:58.168Z,6.40
2018-06-03T06:22:27.139Z,6.03
2018-06-03T06:24:55.879Z,6.43
2018-06-03T06:27:24.558Z,6.17
2018-06-03T06:29:53.230Z,6.07
2018-06-03T06:32:21.928Z,6.17
2018-06-03T06:34:50.698Z,5.70
2018-06-03T06:37:19.338Z,5.97
2018-06-03T06:39:48.054Z,5.60
2018-06-03T06:42:16.727Z,5.43
2018-06-03T06:44:45.422Z,5.30
2018-06-03T06:47:14.098Z,5.03
2018-06-03T06:49:42.800Z,5.20
2018-06-03T06:52:11.497Z,5.50
2018-06-03T06:54:40.212Z,5.37
2018-06-03T06:57:08.733Z,5.70
2018-06-03T06:59:37.444Z,6.10
2018-06-03T07:02:06.154Z,5.97
2018-06-03T07:04:34.839Z,5.42
2018-06-03T07:07:03.522Z,5.47
2018-06-03T07:09:32.253Z,5.67
2018-06-03T07:12:00.995Z,5.90
2018-06-03T07:14:29.715Z,5.70
2018-06-03T07:16:58.431Z,5.33
2018-06-03T07:19:27.119Z,5.60
2018-06-03T07:21:55.916Z,5.45
2018-06-03T07:24:26.790Z,5.15
2018-06-03T07:26:55.510Z,5.35
2018-06-03T07:29:24.060Z,5.60
2018-06-03T07:31:52.758Z,5.33
2018-06-03T07:34:21.686Z,5.80
2018-06-03T07:36:50.417Z,6.00
2018-06-03T07:39:19.177Z,5.35
2018-06-03T07:41:47.887Z,5.55
2018-06-03T07:44:16.665Z,5.42
2018-06-03T07:46:45.411Z,5.47
2018-06-03T07:49:14.139Z,5.40
2018-06-03T07:51:42.866Z,4.90
2018-06-03T07:54:11.386Z,4.47
2018-06-03T07:56:40.092Z,4.30
2018-06-03T07:59:08.810Z,4.92
2018-06-03T08:01:37.330Z,4.72
2018-06-03T08:04:06.278Z,4.67
2018-06-03T08:06:34.785Z,4.87
2018-06-03T08:09:04.395Z,4.90
2018-06-03T08:11:33.076Z,4.50
2018-06-03T08:14:01.802Z,5.00
2018-06-03T08:16:30.504Z,4.10
2018-06-03T08:18:59.248Z,4.55
2018-06-03T08:21:28.076Z,4.22
2018-06-03T08:23:56.862Z,3.60
2018-06-03T08:26:25.597Z,4.00
2018-06-03T08:28:54.308Z,4.30
2018-06-03T08:31:22.974Z,4.40
2018-06-03T08:33:51.824Z,4.20
2018-06-03T08:36:20.572Z,3.80
2018-06-03T08:38:49.311Z,3.70
2018-06-03T08:41:18.012Z,3.77
2018-06-03T08:43:46.733Z,3.72
2018-06-03T08:46:15.543Z,3.62
2018-06-03T08:48:44.258Z,3.65
2018-06-03T08:51:12.803Z,4.33
2018-06-03T08:53:41.580Z,4.45
2018-06-03T08:56:10.345Z,4.00
2018-06-03T08:58:39.057Z,4.10
2018-06-03T09:01:07.755Z,3.72
2018-06-03T09:03:36.426Z,4.40
2018-06-03T09:06:05.755Z,3.62
2018-06-03T09:08:34.479Z,4.15
2018-06-03T09:11:03.244Z,5.22
2018-06-03T09:13:31.749Z,4.28
2018-06-03T09:16:00.554Z,4.03
2018-06-03T09:18:29.244Z,4.10
2018-06-03T09:20:57.949Z,4.47
2018-06-03T09:23:26.699Z,4.35
2018-06-03T09:25:55.499Z,4.20
2018-06-03T09:28:25.792Z,3.80
2018-06-03T09:30:59.884Z,4.37
2018-06-03T09:33:28.601Z,5.10
2018-06-03T09:35:57.444Z,3.87
2018-06-03T09:38:27.043Z,28.60
2018-06-03T09:40:55.736Z,3.87
2018-06-03T09:43:24.470Z,4.92
2018-06-03T09:45:53.167Z,3.85
2018-06-03T09:48:21.930Z,4.25
2018-06-03T09:50:51.882Z,3.58
2018-06-03T09:53:20.634Z,10.95
2018-06-03T09:55:49.366Z,7.75
2018-06-03T09:58:18.152Z,6.40
2018-06-03T10:00:46.889Z,3.20
2018-06-03T10:03:33.619Z,3.20
2018-06-03T10:06:02.411Z,3.30
2018-06-03T10:08:32.100Z,3.92
2018-06-03T10:11:00.884Z,5.58
2018-06-03T10:13:29.616Z,5.25
2018-06-03T10:15:58.414Z,3.02
2018-06-03T10:18:27.156Z,3.10
2018-06-03T10:20:55.924Z,3.20
2018-06-03T10:23:24.436Z,3.40
2018-06-03T10:25:53.172Z,3.22
2018-06-03T10:28:21.914Z,3.42
2018-06-03T10:30:50.722Z,3.95
2018-06-03T10:33:19.471Z,3.58
2018-06-03T10:35:48.232Z,3.52
2018-06-03T10:38:16.751Z,4.17
2018-06-03T10:40:45.559Z,3.65
2018-06-03T10:43:14.381Z,3.37
2018-06-03T10:45:43.134Z,3.20
2018-06-03T10:48:11.889Z,2.90
2018-06-03T10:50:41.505Z,2.77
2018-06-03T10:53:10.226Z,2.77
2018-06-03T10:55:39.034Z,3.30
2018-06-03T10:58:07.719Z,3.30
2018-06-03T11:00:36.486Z,2.85
2018-06-03T11:03:05.292Z,3.17
2018-06-03T11:05:34.125Z,3.52
2018-06-03T11:08:02.629Z,3.35
2018-06-03T11:10:31.398Z,3.08
2018-06-03T11:13:00.171Z,3.47
2018-06-03T11:15:28.966Z,3.12
2018-06-03T11:17:57.698Z,3.12
2018-06-03T11:20:26.993Z,3.47
2018-06-03T11:22:55.715Z,3.72
2018-06-03T11:25:24.281Z,3.60
2018-06-03T11:27:53.072Z,3.42
2018-06-03T11:30:21.834Z,3.60
2018-06-03T11:32:50.574Z,3.00
2018-06-03T11:35:19.326Z,3.65
2018-06-03T11:37:48.074Z,3.50
2018-06-03T11:40:16.933Z,3.20
2018-06-03T11:42:45.654Z,3.33
2018-06-03T11:45:14.375Z,3.67
2018-06-03T11:47:43.099Z,3.60
2018-06-03T11:50:11.859Z,4.15
2018-06-03T11:52:40.670Z,3.70
2018-06-03T11:55:09.467Z,3.70
2018-06-03T11:57:58.080Z,3.55
2018-06-03T12:00:26.904Z,3.67
2018-06-03T12:02:55.932Z,3.47
2018-06-03T12:05:24.699Z,3.70
2018-06-03T12:07:53.427Z,3.27
2018-06-03T12:10:22.547Z,3.42
2018-06-03T12:12:51.125Z,6.10
2018-06-03T12:15:19.844Z,5.70
2018-06-03T12:17:48.589Z,3.62
2018-06-03T12:20:17.321Z,3.90
2018-06-03T12:22:46.159Z,3.70
2018-06-03T12:25:14.931Z,16.02
2018-06-03T12:27:43.694Z,4.67
2018-06-03T12:30:12.489Z,12.50
2018-06-03T12:32:41.236Z,5.03
2018-06-03T12:35:10.049Z,5.42
2018-06-03T12:37:38.806Z,3.65
2018-06-03T12:40:07.586Z,3.85
2018-06-03T12:42:36.354Z,4.15
2018-06-03T12:45:05.166Z,3.47
2018-06-03T12:47:33.802Z,3.52
2018-06-03T12:50:02.527Z,3.50
2018-06-03T12:52:31.326Z,3.47
2018-06-03T12:54:59.878Z,3.42
2018-06-03T12:57:28.641Z,3.58
2018-06-03T12:59:57.346Z,3.27
2018-06-03T13:02:26.082Z,3.42
2018-06-03T13:04:54.877Z,3.40
2018-06-03T13:07:23.623Z,3.25
2018-06-03T13:09:52.389Z,3.75
2018-06-03T13:12:21.166Z,3.83
2018-06-03T13:14:50.816Z,3.42
2018-06-03T13:17:19.597Z,3.33
2018-06-03T13:19:48.350Z,3.40
2018-06-03T13:22:17.052Z,3.60
2018-06-03T13:24:46.339Z,3.70
2018-06-03T13:27:15.400Z,3.37
2018-06-03T13:29:44.163Z,10.32
2018-06-03T13:32:13.030Z,7.67
2018-06-03T13:34:41.859Z,3.75
2018-06-03T13:37:10.559Z,3.92
2018-06-03T13:39:39.395Z,3.67
2018-06-03T13:42:08.124Z,3.70
2018-06-03T13:44:36.907Z,3.52
2018-06-03T13:47:05.700Z,3.60
2018-06-03T13:49:34.436Z,3.60
2018-06-03T13:52:03.182Z,3.83
2018-06-03T13:54:31.933Z,3.50
2018-06-03T13:57:00.684Z,3.25
2018-06-03T13:59:29.464Z,3.60
2018-06-03T14:01:58.304Z,3.50
2018-06-03T14:04:26.979Z,3.75
2018-06-03T14:06:55.744Z,3.72
2018-06-03T14:09:24.484Z,3.47
2018-06-03T14:11:53.216Z,4.15
2018-06-03T14:14:22.033Z,3.40
2018-06-03T14:16:50.546Z,3.70
2018-06-03T14:19:19.320Z,4.17
2018-06-03T14:21:48.089Z,3.50
2018-06-03T14:24:16.824Z,4.08
2018-06-03T14:26:45.541Z,3.83
2018-06-03T14:29:14.271Z,3.50
2018-06-03T14:31:43.034Z,3.50
2018-06-03T14:34:11.791Z,3.60
2018-06-03T14:36:40.527Z,3.67
2018-06-03T14:39:09.282Z,5.33
2018-06-03T14:41:38.072Z,3.35
2018-06-03T14:44:07.138Z,3.55
2018-06-03T14:46:35.859Z,3.95
2018-06-03T14:49:05.781Z,3.92
2018-06-03T14:51:34.494Z,3.80
2018-06-03T14:54:03.241Z,3.87
2018-06-03T14:56:31.965Z,3.70
2018-06-03T14:59:00.630Z,3.77
2018-06-03T15:01:29.365Z,3.80
2018-06-03T15:03:58.059Z,3.87
2018-06-03T15:06:26.777Z,4.30
2018-06-03T15:08:55.505Z,4.00
2018-06-03T15:11:24.223Z,3.83
2018-06-03T15:13:52.923Z,3.90
2018-06-03T15:16:21.683Z,3.95
2018-06-03T15:18:50.251Z,4.28
2018-06-03T15:21:19.053Z,4.35
2018-06-03T15:23:47.772Z,4.28
2018-06-03T15:26:16.344Z,3.98
2018-06-03T15:28:45.584Z,4.05
2018-06-03T15:31:14.292Z,4.28
2018-06-03T15:33:43.035Z,3.83
2018-06-03T15:36:11.561Z,3.95
2018-06-03T15:38:40.253Z,4.17
2018-06-03T15:41:08.975Z,4.03
2018-06-03T15:43:37.710Z,3.90
2018-06-03T15:46:06.512Z,4.00
2018-06-03T15:48:35.231Z,3.62
2018-06-03T15:51:04.080Z,4.10
2018-06-03T15:53:32.855Z,4.08
2018-06-03T15:56:01.572Z,4.22
2018-06-03T15:58:30.293Z,4.30
2018-06-03T16:00:59.091Z,3.85
2018-06-03T16:03:27.783Z,3.83
2018-06-03T16:05:56.497Z,3.67
2018-06-03T16:08:25.217Z,3.90
2018-06-03T16:10:54.269Z,4.30
2018-06-03T16:13:22.828Z,3.80
2018-06-03T16:15:51.579Z,4.20
2018-06-03T16:18:20.270Z,3.80
2018-06-03T16:20:48.979Z,4.10
2018-06-03T16:23:18.082Z,4.10
2018-06-03T16:25:46.891Z,3.87
2018-06-03T16:28:16.035Z,4.25
2018-06-03T16:30:44.809Z,4.00
2018-06-03T16:33:13.595Z,3.87
2018-06-03T16:35:42.400Z,4.25
2018-06-03T16:38:11.154Z,4.03
2018-06-03T16:40:39.931Z,4.15
2018-06-03T16:43:08.726Z,3.70
2018-06-03T16:45:37.787Z,4.30
2018-06-03T16:48:06.353Z,4.58
2018-06-03T16:50:35.139Z,4.75
2018-06-03T16:53:03.919Z,4.30
2018-06-03T16:55:32.672Z,4.08
2018-06-03T16:58:01.404Z,3.83
2018-06-03T17:00:30.169Z,4.42
2018-06-03T17:02:58.952Z,4.50
2018-06-03T17:05:27.773Z,3.85
2018-06-03T17:07:56.547Z,4.25
2018-06-03T17:10:25.294Z,3.80
2018-06-03T17:12:54.062Z,4.03
2018-06-03T17:15:22.800Z,3.87
2018-06-03T17:17:51.491Z,3.72
2018-06-03T17:20:20.329Z,3.65
2018-06-03T17:22:49.137Z,3.20
2018-06-03T17:25:17.920Z,3.62
2018-06-03T17:27:47.735Z,3.30
2018-06-03T17:30:16.492Z,3.70
2018-06-03T17:32:45.082Z,3.85
2018-06-03T17:35:13.869Z,3.77
2018-06-03T17:37:42.654Z,3.50
2018-06-03T17:40:11.463Z,3.53
2018-06-03T17:42:40.276Z,3.20
2018-06-03T17:45:09.068Z,3.60
2018-06-03T17:47:37.808Z,3.40
2018-06-03T17:50:06.698Z,3.20
2018-06-03T17:52:35.447Z,3.80
2018-06-03T17:55:04.315Z,4.03
2018-06-03T17:57:33.039Z,4.30
2018-06-03T18:00:01.844Z,4.00
2018-06-03T18:02:30.554Z,3.90
2018-06-03T18:04:59.292Z,3.27
2018-06-03T18:07:27.999Z,3.70
2018-06-03T18:09:56.971Z,3.97
2018-06-03T18:12:25.713Z,3.70
2018-06-03T18:14:54.523Z,3.70
2018-06-03T18:17:23.320Z,3.40
2018-06-03T18:19:52.682Z,3.23
2018-06-03T18:22:21.570Z,3.60
2018-06-03T18:24:50.317Z,3.27
2018-06-03T18:27:19.095Z,3.30
2018-06-03T18:29:47.830Z,3.33
2018-06-03T18:32:17.586Z,3.57
2018-06-03T18:34:46.360Z,3.87
2018-06-03T18:37:15.079Z,4.53
2018-06-03T18:39:43.773Z,5.13
2018-06-03T18:42:12.325Z,5.87
2018-06-03T18:44:41.106Z,5.93
2018-06-03T18:47:09.870Z,5.40
2018-06-03T18:49:38.582Z,5.77
2018-06-03T18:52:08.227Z,5.30
2018-06-03T18:54:37.007Z,6.00
2018-06-03T18:57:05.574Z,5.63
2018-06-03T18:59:34.787Z,5.67
2018-06-03T19:02:03.650Z,5.00
2018-06-03T19:04:33.387Z,5.10
2018-06-03T19:07:02.164Z,3.80
2018-06-03T19:09:30.734Z,4.03
2018-06-03T19:11:59.500Z,9.10
2018-06-03T19:14:28.264Z,8.13
2018-06-03T19:16:57.776Z,4.97
2018-06-03T19:19:27.147Z,4.87
2018-06-03T19:21:56.199Z,3.80
2018-06-03T19:24:24.951Z,4.37
2018-06-03T19:26:53.804Z,3.70
2018-06-03T19:29:23.407Z,3.40
2018-06-03T19:31:52.194Z,3.20
2018-06-03T19:34:20.994Z,2.90
2018-06-03T19:36:49.540Z,3.50
2018-06-03T19:39:18.320Z,2.70
2018-06-03T19:41:47.153Z,2.70
2018-06-03T19:44:15.899Z,3.70
2018-06-03T19:46:44.739Z,4.17
2018-06-03T19:49:13.495Z,3.73
2018-06-03T19:51:42.228Z,2.73
2018-06-03T19:54:11.370Z,2.67
2018-06-03T19:56:40.206Z,2.73
2018-06-03T19:59:09.356Z,2.70
2018-06-03T20:01:38.190Z,2.83
2018-06-03T20:04:06.979Z,3.40
2018-06-03T20:06:35.833Z,3.10
2018-06-03T20:09:07.004Z,2.90
2018-06-03T20:11:35.816Z,3.13
2018-06-03T20:14:04.704Z,3.47
2018-06-03T20:16:33.819Z,3.70
2018-06-03T20:19:02.609Z,3.17
2018-06-03T20:21:31.412Z,3.00
2018-06-03T20:24:00.224Z,9.37
2018-06-03T20:26:29.141Z,5.57
2018-06-03T20:28:57.959Z,4.77
2018-06-03T20:31:26.714Z,3.90
2018-06-03T20:33:55.508Z,3.17
2018-06-03T20:36:24.269Z,3.23
2018-06-03T20:38:52.879Z,3.40
2018-06-03T20:41:21.668Z,3.50
2018-06-03T20:44:04.817Z,3.27
2018-06-03T20:46:33.564Z,3.50
2018-06-03T20:49:02.338Z,3.53
2018-06-03T20:51:30.896Z,3.90
2018-06-03T20:53:59.616Z,3.27
2018-06-03T20:56:28.508Z,3.40
2018-06-03T20:58:57.256Z,3.57
2018-06-03T21:01:26.021Z,3.27
2018-06-03T21:03:54.752Z,4.30
2018-06-03T21:06:23.616Z,3.87
2018-06-03T21:08:52.934Z,3.60
2018-06-03T21:11:21.675Z,3.70
2018-06-03T21:13:50.463Z,4.13
2018-06-03T21:16:19.199Z,4.00
2018-06-03T21:18:47.982Z,4.03
2018-06-03T21:21:16.700Z,4.03
2018-06-03T21:23:45.484Z,3.93
2018-06-03T21:26:14.276Z,3.90
2018-06-03T21:28:43.035Z,4.00
2018-06-03T21:31:11.604Z,3.90
2018-06-03T21:33:40.341Z,3.73
2018-06-03T21:36:09.078Z,4.00
2018-06-03T21:38:38.118Z,4.10
2018-06-03T21:41:06.932Z,3.60
2018-06-03T21:43:35.662Z,3.70
2018-06-03T21:46:04.287Z,3.93
2018-06-03T21:48:33.062Z,3.57
2018-06-03T21:51:01.863Z,3.87
2018-06-03T21:53:30.601Z,3.53
2018-06-03T21:55:59.319Z,3.30
2018-06-03T21:58:28.107Z,3.50
2018-06-03T22:00:56.614Z,3.47
2018-06-03T22:03:25.405Z,3.27
2018-06-03T22:05:54.168Z,3.40
2018-06-03T22:08:22.920Z,3.43
2018-06-03T22:10:52.043Z,3.50
2018-06-03T22:13:20.750Z,3.70
2018-06-03T22:15:49.994Z,3.47
2018-06-03T22:18:18.727Z,3.80
2018-06-03T22:20:47.491Z,3.90
2018-06-03T22:23:16.271Z,3.50
2018-06-03T22:25:45.061Z,3.70
2018-06-03T22:28:13.779Z,3.50
2018-06-03T22:30:42.527Z,4.10
2018-06-03T22:33:11.106Z,4.07
2018-06-03T22:35:39.833Z,4.00
2018-06-03T22:38:08.576Z,4.07
2018-06-03T22:40:37.304Z,3.93
2018-06-03T22:43:06.044Z,3.67
2018-06-03T22:45:34.787Z,4.30
2018-06-03T22:48:03.562Z,3.37
2018-06-03T22:50:32.335Z,4.17
2018-06-03T22:53:01.059Z,3.50
2018-06-03T22:55:29.799Z,3.07
2018-06-03T22:57:58.310Z,3.60
2018-06-03T23:00:29.023Z,3.20
2018-06-03T23:03:03.439Z,3.40
2018-06-03T23:05:31.966Z,3.63
2018-06-03T23:08:00.721Z,3.30
2018-06-03T23:10:29.494Z,3.90
2018-06-03T23:12:58.229Z,3.40
2018-06-03T23:15:26.956Z,3.30
2018-06-03T23:17:55.437Z,3.97
2018-06-03T23:20:23.979Z,3.40
2018-06-03T23:22:52.699Z,3.13
2018-06-03T23:25:21.419Z,3.17
2018-06-03T23:27:50.094Z,3.47
2018-06-03T23:30:18.637Z,3.80
2018-06-03T23:32:47.452Z,3.97
2018-06-03T23:35:15.964Z,3.80
2018-06-03T23:37:44.639Z,4.03
2018-06-03T23:40:13.379Z,3.97
2018-06-03T23:42:42.128Z,4.20
2018-06-03T23:45:10.864Z,3.57
2018-06-03T23:47:39.709Z,3.87
2018-06-03T23:50:08.480Z,3.80
2018-06-03T23:52:37.187Z,3.90
2018-06-03T23:55:05.887Z,4.10
2018-06-03T23:57:34.620Z,4.33
